createdAt,value
2022-09-11T00:00:21.772Z,9.52
2022-09-11T00:03:25.134Z,12.05
2022-09-11T00:06:30.661Z,7.70
2022-09-11T00:09:33.996Z,6.15
2022-09-11T00:12:37.248Z,11.57
2022-09-11T00:15:41.761Z,11.00
2022-09-11T00:18:44.956Z,8.48
2022-09-11T00:21:51.068Z,6.93
2022-09-11T00:24:55.111Z,11.02
2022-09-11T00:27:58.313Z,9.00
2022-09-11T00:31:03.520Z,10.48
2022-09-11T00:34:08.077Z,9.40
2022-09-11T00:37:12.714Z,7.03
2022-09-11T00:40:16.604Z,9.38
2022-09-11T00:43:20.225Z,9.32
2022-09-11T00:46:26.245Z,11.88
2022-09-11T00:49:34.123Z,9.88
2022-09-11T00:52:42.418Z,9.25
2022-09-11T00:55:52.320Z,8.90
2022-09-11T00:58:57.203Z,7.55
2022-09-11T01:02:00.779Z,7.88
2022-09-11T01:05:05.064Z,11.02
2022-09-11T01:08:10.534Z,11.90
2022-09-11T01:11:27.639Z,7.60
2022-09-11T01:14:43.112Z,7.30
2022-09-11T01:17:55.324Z,10.10
2022-09-11T01:21:17.587Z,7.43
2022-09-11T01:24:54.611Z,11.30
2022-09-11T01:28:01.347Z,6.38
2022-09-11T01:31:10.347Z,9.10
2022-09-11T01:34:23.017Z,8.57
2022-09-11T01:37:32.643Z,7.10
2022-09-11T01:40:45.931Z,11.00
2022-09-11T01:43:56.792Z,6.60
2022-09-11T01:47:00.451Z,8.07
2022-09-11T01:50:07.189Z,8.25
2022-09-11T01:53:14.256Z,9.63
2022-09-11T01:56:22.438Z,10.32
2022-09-11T01:59:35.180Z,8.32
2022-09-11T02:02:43.280Z,5.60
2022-09-11T02:05:53.289Z,9.05
2022-09-11T02:09:02.791Z,11.38
2022-09-11T02:12:12.460Z,9.13
2022-09-11T02:15:18.976Z,8.98
2022-09-11T02:18:27.022Z,9.45
2022-09-11T02:21:31.088Z,8.10
2022-09-11T02:24:34.791Z,7.00
2022-09-11T02:27:38.036Z,10.15
2022-09-11T02:30:45.090Z,9.15
2022-09-11T02:33:49.004Z,9.02
2022-09-11T02:37:08.108Z,13.75
2022-09-11T02:40:27.608Z,8.05
2022-09-11T02:43:47.978Z,8.68
2022-09-11T02:47:01.061Z,10.75
2022-09-11T02:50:11.860Z,10.57
2022-09-11T02:53:25.246Z,11.40
2022-09-11T02:56:37.013Z,8.82
2022-09-11T02:59:45.099Z,11.18
2022-09-11T03:02:49.879Z,11.73
2022-09-11T03:05:53.323Z,7.43
2022-09-11T03:08:56.885Z,6.63
2022-09-11T03:12:00.167Z,8.38
2022-09-11T03:15:03.543Z,10.82
2022-09-11T03:18:08.316Z,10.57
2022-09-11T03:21:12.281Z,8.52
2022-09-11T03:24:17.210Z,7.72
2022-09-11T03:27:21.691Z,13.82
2022-09-11T03:30:24.997Z,13.38
2022-09-11T03:33:29.887Z,13.30
2022-09-11T03:36:34.491Z,8.63
2022-09-11T03:39:37.817Z,8.75
2022-09-11T03:42:41.159Z,12.40
2022-09-11T03:45:44.869Z,9.88
2022-09-11T03:48:52.564Z,8.55
2022-09-11T03:51:57.729Z,9.38
2022-09-11T03:55:01.454Z,8.07
2022-09-11T03:58:07.236Z,8.35
2022-09-11T04:01:19.534Z,9.52
2022-09-11T04:04:26.023Z,6.40
2022-09-11T04:07:31.586Z,10.68
2022-09-11T04:10:35.391Z,11.15
2022-09-11T04:13:42.205Z,7.15
2022-09-11T04:16:48.941Z,9.55
2022-09-11T04:19:55.079Z,7.85
2022-09-11T04:22:58.452Z,10.60
2022-09-11T04:26:01.841Z,8.13
2022-09-11T04:29:05.182Z,7.88
2022-09-11T04:32:08.654Z,13.60
2022-09-11T04:35:14.363Z,7.97
2022-09-11T04:38:25.963Z,8.75
2022-09-11T04:41:29.888Z,6.35
2022-09-11T04:44:36.253Z,12.85
2022-09-11T04:47:40.051Z,8.57
2022-09-11T04:50:48.740Z,9.82
2022-09-11T04:54:00.748Z,6.95
2022-09-11T04:57:10.914Z,7.55
2022-09-11T05:00:16.380Z,9.63
2022-09-11T05:03:21.043Z,9.00
2022-09-11T05:06:25.722Z,10.57
2022-09-11T05:09:29.969Z,5.72
2022-09-11T05:12:34.759Z,8.70
2022-09-11T05:15:38.564Z,10.40
2022-09-11T05:18:43.409Z,8.23
2022-09-11T05:21:49.351Z,6.50
2022-09-11T05:24:52.735Z,8.30
2022-09-11T05:27:55.993Z,7.97
2022-09-11T05:31:00.067Z,11.05
2022-09-11T05:34:03.668Z,9.15
2022-09-11T05:37:08.364Z,8.05
2022-09-11T05:40:17.520Z,9.85
2022-09-11T05:43:22.508Z,8.77
2022-09-11T05:46:27.239Z,7.05
2022-09-11T05:49:34.405Z,9.55
2022-09-11T05:52:40.138Z,8.88
2022-09-11T05:55:44.122Z,5.15
2022-09-11T05:58:48.706Z,7.18
2022-09-11T06:01:52.798Z,6.43
2022-09-11T06:05:07.188Z,8.07
2022-09-11T06:08:13.026Z,7.18
2022-09-11T06:11:18.205Z,8.10
2022-09-11T06:14:22.336Z,7.25
2022-09-11T06:17:28.411Z,8.48
2022-09-11T06:20:31.670Z,9.43
2022-09-11T06:23:39.946Z,10.68
2022-09-11T06:26:46.610Z,5.88
2022-09-11T06:29:50.902Z,5.72
2022-09-11T06:32:56.659Z,8.10
2022-09-11T06:36:01.584Z,6.82
2022-09-11T06:39:06.326Z,5.18
2022-09-11T06:42:11.451Z,7.50
2022-09-11T06:45:15.159Z,6.35
2022-09-11T06:48:20.160Z,7.90
2022-09-11T06:51:24.576Z,8.85
2022-09-11T06:54:30.675Z,5.20
2022-09-11T06:57:39.864Z,7.97
2022-09-11T07:00:49.331Z,6.43
2022-09-11T07:03:54.474Z,7.13
2022-09-11T07:06:58.529Z,8.05
2022-09-11T07:10:04.432Z,5.22
2022-09-11T07:13:09.001Z,4.20
2022-09-11T07:16:13.757Z,8.20
2022-09-11T07:19:19.639Z,5.72
2022-09-11T07:22:22.923Z,3.92
2022-09-11T07:25:30.624Z,5.97
2022-09-11T07:28:34.526Z,4.60
2022-09-11T07:31:40.224Z,8.48
2022-09-11T07:34:43.599Z,7.80
2022-09-11T07:37:50.753Z,5.97
2022-09-11T07:40:57.136Z,3.95
2022-09-11T07:44:01.428Z,6.95
2022-09-11T07:47:06.743Z,4.30
2022-09-11T07:50:15.947Z,4.65
2022-09-11T07:53:20.131Z,4.70
2022-09-11T07:56:26.527Z,6.38
2022-09-11T07:59:31.091Z,4.10
2022-09-11T08:02:35.091Z,6.50
2022-09-11T08:05:38.350Z,7.15
2022-09-11T08:08:43.627Z,5.80
2022-09-11T08:11:49.618Z,5.13
2022-09-11T08:14:54.808Z,7.45
2022-09-11T08:17:59.660Z,3.90
2022-09-11T08:21:04.613Z,5.35
2022-09-11T08:24:08.240Z,5.35
2022-09-11T08:27:13.573Z,5.22
2022-09-11T08:30:18.971Z,11.95
2022-09-11T08:33:22.472Z,4.60
2022-09-11T08:36:25.973Z,4.07
2022-09-11T08:39:29.479Z,3.92
2022-09-11T08:42:37.847Z,6.50
2022-09-11T08:45:41.440Z,5.82
2022-09-11T08:48:54.698Z,6.07
2022-09-11T08:52:02.252Z,4.40
2022-09-11T08:55:11.001Z,4.43
2022-09-11T08:58:23.973Z,5.15
2022-09-11T09:01:36.143Z,5.82
2022-09-11T09:05:01.052Z,5.93
2022-09-11T09:08:41.985Z,4.20
2022-09-11T09:11:56.925Z,5.38
2022-09-11T09:15:33.334Z,6.40
2022-09-11T09:18:41.940Z,5.28
2022-09-11T09:21:50.860Z,5.75
2022-09-11T09:25:00.629Z,5.55
2022-09-11T09:28:12.539Z,5.07
2022-09-11T09:31:22.140Z,13.18
2022-09-11T09:34:31.465Z,7.18
2022-09-11T09:37:35.215Z,5.47
2022-09-11T09:40:39.928Z,6.55
2022-09-11T09:43:56.245Z,5.70
2022-09-11T09:47:00.888Z,4.70
2022-09-11T09:50:04.851Z,4.65
2022-09-11T09:53:17.936Z,6.00
2022-09-11T09:56:23.873Z,6.85
2022-09-11T09:59:35.514Z,5.63
2022-09-11T10:02:42.967Z,4.57
2022-09-11T10:05:53.492Z,4.55
2022-09-11T10:09:01.373Z,5.47
2022-09-11T10:12:08.931Z,4.05
2022-09-11T10:15:22.541Z,6.22
2022-09-11T10:18:37.900Z,5.03
2022-09-11T10:21:41.029Z,3.92
2022-09-11T10:24:44.331Z,4.25
2022-09-11T10:27:56.333Z,4.05
2022-09-11T10:31:02.552Z,4.95
2022-09-11T10:34:07.637Z,5.00
2022-09-11T10:37:25.382Z,6.45
2022-09-11T10:40:28.796Z,7.95
2022-09-11T10:43:37.888Z,3.95
2022-09-11T10:46:43.182Z,5.10
2022-09-11T10:49:48.115Z,2.65
2022-09-11T10:53:00.121Z,3.80
2022-09-11T10:56:06.058Z,3.42
2022-09-11T10:59:23.568Z,6.65
2022-09-11T11:02:31.760Z,3.15
2022-09-11T11:05:48.000Z,4.32
2022-09-11T11:09:11.145Z,6.63
2022-09-11T11:12:32.782Z,6.63
2022-09-11T11:15:43.838Z,4.53
2022-09-11T11:19:01.310Z,5.38
2022-09-11T11:22:21.294Z,4.50
2022-09-11T11:25:31.429Z,5.90
2022-09-11T11:28:51.598Z,3.60
2022-09-11T11:32:09.684Z,3.65
2022-09-11T11:35:26.037Z,2.97
2022-09-11T11:38:35.911Z,3.25
2022-09-11T11:41:45.029Z,3.33
2022-09-11T11:44:54.423Z,4.50
2022-09-11T11:47:58.260Z,4.85
2022-09-11T11:51:06.216Z,3.28
2022-09-11T11:54:19.173Z,3.75
2022-09-11T11:57:27.573Z,4.07
2022-09-11T12:00:35.475Z,3.45
2022-09-11T12:03:43.919Z,2.63
2022-09-11T12:06:47.247Z,4.18
2022-09-11T12:09:54.165Z,4.80
2022-09-11T12:13:01.700Z,3.88
2022-09-11T12:16:17.423Z,4.25
2022-09-11T12:19:23.777Z,6.80
2022-09-11T12:22:39.173Z,3.10
2022-09-11T12:26:05.204Z,3.47
2022-09-11T12:29:51.762Z,6.93
2022-09-11T12:32:57.191Z,2.50
2022-09-11T12:36:01.217Z,7.43
2022-09-11T12:39:16.174Z,2.97
2022-09-11T12:42:56.810Z,4.05
2022-09-11T12:46:00.269Z,3.72
2022-09-11T12:49:22.029Z,4.05
2022-09-11T12:52:42.874Z,5.38
2022-09-11T12:55:56.005Z,2.55
2022-09-11T12:59:04.904Z,2.60
2022-09-11T13:02:26.801Z,3.17
2022-09-11T13:05:34.735Z,4.35
2022-09-11T13:08:46.268Z,5.00
2022-09-11T13:11:51.197Z,4.10
2022-09-11T13:15:02.542Z,2.55
2022-09-11T13:18:31.720Z,6.07
2022-09-11T13:21:38.145Z,5.75
2022-09-11T13:24:41.461Z,3.60
2022-09-11T13:27:47.868Z,3.28
2022-09-11T13:31:05.295Z,3.03
2022-09-11T13:34:14.998Z,2.63
2022-09-11T13:37:36.588Z,3.28
2022-09-11T13:40:44.616Z,2.75
2022-09-11T13:43:50.893Z,3.45
2022-09-11T13:46:56.354Z,3.92
2022-09-11T13:50:03.273Z,3.78
2022-09-11T13:53:06.801Z,3.28
2022-09-11T13:56:21.589Z,2.60
2022-09-11T13:59:46.455Z,2.40
2022-09-11T14:02:58.659Z,3.38
2022-09-11T14:06:06.631Z,5.80
2022-09-11T14:09:19.412Z,5.15
2022-09-11T14:12:23.154Z,3.90
2022-09-11T14:15:35.258Z,7.40
2022-09-11T14:18:45.558Z,4.60
2022-09-11T14:21:50.763Z,3.90
2022-09-11T14:25:03.947Z,4.43
2022-09-11T14:28:07.658Z,4.50
2022-09-11T14:31:13.381Z,4.68
2022-09-11T14:34:19.772Z,3.40
2022-09-11T14:37:23.768Z,6.20
2022-09-11T14:40:27.307Z,5.95
2022-09-11T14:43:33.261Z,5.38
2022-09-11T14:46:37.107Z,3.97
2022-09-11T14:49:41.912Z,3.80
2022-09-11T14:52:46.523Z,5.13
2022-09-11T14:55:51.516Z,6.05
2022-09-11T14:58:55.176Z,3.47
2022-09-11T15:01:59.719Z,5.07
2022-09-11T15:05:04.401Z,4.55
2022-09-11T15:08:07.769Z,4.20
2022-09-11T15:11:11.034Z,4.82
2022-09-11T15:14:27.808Z,3.67
2022-09-11T15:17:36.500Z,3.67
2022-09-11T15:20:41.203Z,7.88
2022-09-11T15:23:50.108Z,4.10
2022-09-11T15:26:54.009Z,4.30
2022-09-11T15:29:57.442Z,5.38
2022-09-11T15:33:00.680Z,6.57
2022-09-11T15:36:06.880Z,5.65
2022-09-11T15:39:14.482Z,5.50
2022-09-11T15:42:17.901Z,5.30
2022-09-11T15:45:21.195Z,4.20
2022-09-11T15:48:24.502Z,4.00
2022-09-11T15:51:29.878Z,4.53
2022-09-11T15:54:33.154Z,3.95
2022-09-11T15:57:36.904Z,4.57
2022-09-11T16:00:40.167Z,6.75
2022-09-11T16:03:43.483Z,5.07
2022-09-11T16:06:49.912Z,7.78
2022-09-11T16:09:53.509Z,11.35
2022-09-11T16:12:58.973Z,5.38
2022-09-11T16:16:04.200Z,5.90
2022-09-11T16:19:07.592Z,9.93
2022-09-11T16:22:12.351Z,5.93
2022-09-11T16:25:16.143Z,4.47
2022-09-11T16:28:19.473Z,8.23
2022-09-11T16:31:22.878Z,6.20
2022-09-11T16:34:26.248Z,4.70
2022-09-11T16:37:32.897Z,8.35
2022-09-11T16:40:36.679Z,5.47
2022-09-11T16:43:41.232Z,8.63
2022-09-11T16:46:45.318Z,6.68
2022-09-11T16:53:13.981Z,6.03
2022-09-11T16:56:19.730Z,7.90
2022-09-11T16:59:23.050Z,9.45
2022-09-11T17:02:26.599Z,6.28
2022-09-11T17:05:29.908Z,9.00
2022-09-11T17:08:35.125Z,8.88
2022-09-11T17:11:38.508Z,20.52
2022-09-11T17:14:41.816Z,14.63
2022-09-11T17:17:45.052Z,15.60
2022-09-11T17:20:48.600Z,23.00
2022-09-11T17:23:54.615Z,35.92
2022-09-11T17:26:58.102Z,14.27
2022-09-11T17:30:01.533Z,4.72
2022-09-11T17:33:05.048Z,6.47
2022-09-11T17:36:10.801Z,5.15
2022-09-11T17:39:15.503Z,7.50
2022-09-11T17:42:18.736Z,5.72
2022-09-11T17:45:23.213Z,5.20
2022-09-11T17:48:26.616Z,8.40
2022-09-11T17:51:30.024Z,7.70
2022-09-11T17:54:34.845Z,6.07
2022-09-11T17:57:38.187Z,6.10
2022-09-11T18:00:41.542Z,7.53
2022-09-11T18:03:49.367Z,13.85
2022-09-11T18:06:55.789Z,8.25
2022-09-11T18:10:00.498Z,11.20
2022-09-11T18:13:03.759Z,8.52
2022-09-11T18:16:11.381Z,9.25
2022-09-11T18:19:16.576Z,10.82
2022-09-11T18:22:20.009Z,12.52
2022-09-11T18:25:26.134Z,8.25
2022-09-11T18:28:29.929Z,10.05
2022-09-11T18:31:39.940Z,9.25
2022-09-11T18:34:43.536Z,12.43
2022-09-11T18:37:46.781Z,13.98
2022-09-11T18:41:00.827Z,16.05
2022-09-11T18:44:08.328Z,14.85
2022-09-11T18:47:11.495Z,16.00
2022-09-11T18:50:14.784Z,11.10
2022-09-11T18:53:18.281Z,12.85
2022-09-11T18:56:24.296Z,10.85
2022-09-11T18:59:27.690Z,9.73
2022-09-11T19:02:30.891Z,12.70
2022-09-11T19:05:34.462Z,9.60
2022-09-11T19:08:38.784Z,12.05
2022-09-11T19:11:44.233Z,11.95
2022-09-11T19:14:49.204Z,12.30
2022-09-11T19:17:55.383Z,13.55
2022-09-11T19:21:00.375Z,7.35
2022-09-11T19:24:04.205Z,12.40
2022-09-11T19:27:08.860Z,7.32
2022-09-11T19:30:13.794Z,14.75
2022-09-11T19:33:17.061Z,10.77
2022-09-11T19:36:22.118Z,9.73
2022-09-11T19:39:26.852Z,10.10
2022-09-11T19:42:32.576Z,9.90
2022-09-11T19:45:35.851Z,8.55
2022-09-11T19:48:40.037Z,11.85
2022-09-11T19:51:45.055Z,10.02
2022-09-11T19:54:48.265Z,11.30
2022-09-11T19:57:52.973Z,10.00
2022-09-11T20:00:56.416Z,12.25
2022-09-11T20:04:01.805Z,15.95
2022-09-11T20:07:05.731Z,9.25
2022-09-11T20:10:10.980Z,9.50
2022-09-11T20:13:17.192Z,8.77
2022-09-11T20:16:23.590Z,13.60
2022-09-11T20:19:27.501Z,10.45
2022-09-11T20:22:30.973Z,9.02
2022-09-11T20:25:34.246Z,9.05
2022-09-11T20:28:39.710Z,9.25
2022-09-11T20:31:48.206Z,7.72
2022-09-11T20:34:52.465Z,9.43
2022-09-11T20:37:56.810Z,8.23
2022-09-11T20:41:00.694Z,9.00
2022-09-11T20:44:13.473Z,7.47
2022-09-11T20:47:17.236Z,7.50
2022-09-11T20:50:20.509Z,8.93
2022-09-11T20:53:23.908Z,7.93
2022-09-11T20:56:27.223Z,6.93
2022-09-11T20:59:31.923Z,8.18
2022-09-11T21:02:35.854Z,5.90
2022-09-11T21:05:39.697Z,5.97
2022-09-11T21:08:44.417Z,6.00
2022-09-11T21:11:48.126Z,9.45
2022-09-11T21:14:53.014Z,6.38
2022-09-11T21:17:57.118Z,4.97
2022-09-11T21:21:00.607Z,6.00
2022-09-11T21:24:05.756Z,5.30
2022-09-11T21:27:09.268Z,5.10
2022-09-11T21:30:15.231Z,5.38
2022-09-11T21:33:19.167Z,6.30
2022-09-11T21:36:22.544Z,4.90
2022-09-11T21:39:25.778Z,5.63
2022-09-11T21:42:29.054Z,6.22
2022-09-11T21:45:33.817Z,5.60
2022-09-11T21:48:38.612Z,4.85
2022-09-11T21:51:41.968Z,5.65
2022-09-11T21:54:45.272Z,5.82
2022-09-11T21:57:48.573Z,5.95
2022-09-11T22:00:53.395Z,4.35
2022-09-11T22:03:56.774Z,5.97
2022-09-11T22:07:00.477Z,7.00
2022-09-11T22:10:04.542Z,4.28
2022-09-11T22:13:07.869Z,5.40
2022-09-11T22:16:14.714Z,6.75
2022-09-11T22:19:18.133Z,4.72
2022-09-11T22:22:21.325Z,4.72
2022-09-11T22:25:24.631Z,4.68
2022-09-11T22:28:28.483Z,5.40
2022-09-11T22:31:33.299Z,6.68
2022-09-11T22:34:37.613Z,6.07
2022-09-11T22:37:40.868Z,5.75
2022-09-11T22:40:44.178Z,4.90
2022-09-11T22:43:50.144Z,7.47
2022-09-11T22:46:54.945Z,5.38
2022-09-11T22:49:58.216Z,5.30
2022-09-11T22:53:01.533Z,5.43
2022-09-11T22:56:04.804Z,6.80
2022-09-11T22:59:08.227Z,6.90
2022-09-11T23:02:13.636Z,8.13
2022-09-11T23:05:34.453Z,7.80
2022-09-11T23:08:39.573Z,6.13
2022-09-11T23:11:42.835Z,7.85
2022-09-11T23:14:46.136Z,7.93
2022-09-11T23:17:50.892Z,6.93
2022-09-11T23:20:54.774Z,6.75
2022-09-11T23:23:59.462Z,9.93
2022-09-11T23:27:02.689Z,8.35
2022-09-11T23:30:06.623Z,7.88
2022-09-11T23:33:11.908Z,8.18
2022-09-11T23:36:16.973Z,6.20
2022-09-11T23:39:20.253Z,7.85
2022-09-11T23:42:24.579Z,7.05
2022-09-11T23:45:27.930Z,5.68
2022-09-11T23:48:32.947Z,5.43
2022-09-11T23:51:36.225Z,4.60
2022-09-11T23:54:39.551Z,4.80
2022-09-11T23:57:42.847Z,4.60
